sensor_id;sensor_type;location;lat;lon;timestamp;temperature;humidity
38436;DHT22;24220;48.168;14.024;2023-03-08T00:01:17;10.90;45.50
38436;DHT22;24220;48.168;14.024;2023-03-08T00:03:45;10.90;45.50
38436;DHT22;24220;48.168;14.024;2023-03-08T00:06:14;10.90;45.50
38436;DHT22;24220;48.168;14.024;2023-03-08T00:08:42;10.80;45.40
38436;DHT22;24220;48.168;14.024;2023-03-08T00:11:11;10.90;45.40
38436;DHT22;24220;48.168;14.024;2023-03-08T00:13:39;10.90;45.50
38436;DHT22;24220;48.168;14.024;2023-03-08T00:16:09;10.80;45.70
38436;DHT22;24220;48.168;14.024;2023-03-08T00:18:37;10.70;45.90
38436;DHT22;24220;48.168;14.024;2023-03-08T00:21:08;10.60;46.20
38436;DHT22;24220;48.168;14.024;2023-03-08T00:23:38;10.70;46.40
38436;DHT22;24220;48.168;14.024;2023-03-08T00:26:06;10.70;46.70
38436;DHT22;24220;48.168;14.024;2023-03-08T00:28:34;10.60;46.90
38436;DHT22;24220;48.168;14.024;2023-03-08T00:31:05;10.60;47.10
38436;DHT22;24220;48.168;14.024;2023-03-08T00:33:33;10.60;47.40
38436;DHT22;24220;48.168;14.024;2023-03-08T00:36:04;10.60;47.50
38436;DHT22;24220;48.168;14.024;2023-03-08T00:38:33;10.60;47.80
38436;DHT22;24220;48.168;14.024;2023-03-08T00:41:02;10.60;48.00
38436;DHT22;24220;48.168;14.024;2023-03-08T00:43:29;10.60;47.90
38436;DHT22;24220;48.168;14.024;2023-03-08T00:46:02;10.60;48.00
38436;DHT22;24220;48.168;14.024;2023-03-08T00:48:29;10.60;48.30
38436;DHT22;24220;48.168;14.024;2023-03-08T00:50:57;10.60;48.50
38436;DHT22;24220;48.168;14.024;2023-03-08T00:53:24;10.60;48.50
38436;DHT22;24220;48.168;14.024;2023-03-08T00:55:53;10.60;48.70
38436;DHT22;24220;48.168;14.024;2023-03-08T00:58:22;10.60;49.00
38436;DHT22;24220;48.168;14.024;2023-03-08T01:00:49;10.60;49.30
38436;DHT22;24220;48.168;14.024;2023-03-08T01:03:17;10.60;49.60
38436;DHT22;24220;48.168;14.024;2023-03-08T01:05:50;10.50;49.80
38436;DHT22;24220;48.168;14.024;2023-03-08T01:08:20;10.50;50.00
38436;DHT22;24220;48.168;14.024;2023-03-08T01:10:56;10.40;50.40
38436;DHT22;24220;48.168;14.024;2023-03-08T01:13:33;10.40;50.60
38436;DHT22;24220;48.168;14.024;2023-03-08T01:16:01;10.40;50.80
38436;DHT22;24220;48.168;14.024;2023-03-08T01:18:29;10.30;50.90
38436;DHT22;24220;48.168;14.024;2023-03-08T01:20:59;10.30;51.00
38436;DHT22;24220;48.168;14.024;2023-03-08T01:23:27;10.30;51.20
38436;DHT22;24220;48.168;14.024;2023-03-08T01:26:02;10.20;51.50
38436;DHT22;24220;48.168;14.024;2023-03-08T01:28:33;10.30;51.70
38436;DHT22;24220;48.168;14.024;2023-03-08T01:31:04;10.30;51.70
38436;DHT22;24220;48.168;14.024;2023-03-08T01:33:32;10.20;51.80
38436;DHT22;24220;48.168;14.024;2023-03-08T01:36:05;10.20;52.00
38436;DHT22;24220;48.168;14.024;2023-03-08T01:38:36;10.20;52.10
38436;DHT22;24220;48.168;14.024;2023-03-08T01:41:07;10.20;52.00
38436;DHT22;24220;48.168;14.024;2023-03-08T01:43:40;10.20;52.00
38436;DHT22;24220;48.168;14.024;2023-03-08T01:51:14;10.20;52.00
38436;DHT22;24220;48.168;14.024;2023-03-08T01:53:44;10.20;52.20
38436;DHT22;24220;48.168;14.024;2023-03-08T01:56:14;10.20;52.10
38436;DHT22;24220;48.168;14.024;2023-03-08T01:58:45;10.20;52.20
38436;DHT22;24220;48.168;14.024;2023-03-08T02:01:14;10.20;52.20
38436;DHT22;24220;48.168;14.024;2023-03-08T02:03:44;10.20;52.30
38436;DHT22;24220;48.168;14.024;2023-03-08T02:06:17;10.10;52.20
38436;DHT22;24220;48.168;14.024;2023-03-08T02:08:45;10.10;52.40
38436;DHT22;24220;48.168;14.024;2023-03-08T02:11:16;10.10;52.40
38436;DHT22;24220;48.168;14.024;2023-03-08T02:13:44;10.10;52.50
38436;DHT22;24220;48.168;14.024;2023-03-08T02:16:13;10.10;52.40
38436;DHT22;24220;48.168;14.024;2023-03-08T02:18:58;10.10;52.40
38436;DHT22;24220;48.168;14.024;2023-03-08T02:21:27;10.10;52.40
38436;DHT22;24220;48.168;14.024;2023-03-08T02:24:01;10.10;52.40
38436;DHT22;24220;48.168;14.024;2023-03-08T02:26:28;10.10;52.30
38436;DHT22;24220;48.168;14.024;2023-03-08T02:28:56;10.20;52.40
38436;DHT22;24220;48.168;14.024;2023-03-08T02:31:23;10.20;52.50
38436;DHT22;24220;48.168;14.024;2023-03-08T02:33:50;10.20;52.50
38436;DHT22;24220;48.168;14.024;2023-03-08T02:36:17;10.20;52.30
38436;DHT22;24220;48.168;14.024;2023-03-08T02:38:47;10.20;52.30
38436;DHT22;24220;48.168;14.024;2023-03-08T02:41:18;10.20;52.30
38436;DHT22;24220;48.168;14.024;2023-03-08T02:43:46;10.20;52.40
38436;DHT22;24220;48.168;14.024;2023-03-08T02:46:13;10.20;52.30
38436;DHT22;24220;48.168;14.024;2023-03-08T02:48:41;10.20;52.30
38436;DHT22;24220;48.168;14.024;2023-03-08T02:51:08;10.10;52.30
38436;DHT22;24220;48.168;14.024;2023-03-08T02:53:35;10.10;52.30
38436;DHT22;24220;48.168;14.024;2023-03-08T02:56:03;10.10;52.30
38436;DHT22;24220;48.168;14.024;2023-03-08T02:58:32;10.10;52.30
38436;DHT22;24220;48.168;14.024;2023-03-08T03:01:00;10.10;52.30
38436;DHT22;24220;48.168;14.024;2023-03-08T03:03:27;10.00;52.20
38436;DHT22;24220;48.168;14.024;2023-03-08T03:05:54;10.00;52.20
38436;DHT22;24220;48.168;14.024;2023-03-08T03:08:22;10.00;52.30
38436;DHT22;24220;48.168;14.024;2023-03-08T03:10:49;10.00;52.40
38436;DHT22;24220;48.168;14.024;2023-03-08T03:13:17;9.90;52.40
38436;DHT22;24220;48.168;14.024;2023-03-08T03:15:44;9.90;52.50
38436;DHT22;24220;48.168;14.024;2023-03-08T03:18:11;9.90;52.50
38436;DHT22;24220;48.168;14.024;2023-03-08T03:20:39;9.90;52.60
38436;DHT22;24220;48.168;14.024;2023-03-08T03:23:06;9.90;52.50
38436;DHT22;24220;48.168;14.024;2023-03-08T03:25:37;9.90;52.50
38436;DHT22;24220;48.168;14.024;2023-03-08T03:28:04;9.90;52.50
38436;DHT22;24220;48.168;14.024;2023-03-08T03:30:32;10.00;52.50
38436;DHT22;24220;48.168;14.024;2023-03-08T03:32:59;10.00;52.50
38436;DHT22;24220;48.168;14.024;2023-03-08T03:35:26;10.00;52.40
38436;DHT22;24220;48.168;14.024;2023-03-08T03:37:54;10.00;52.50
38436;DHT22;24220;48.168;14.024;2023-03-08T03:40:23;10.00;52.40
38436;DHT22;24220;48.168;14.024;2023-03-08T03:42:51;10.00;52.40
38436;DHT22;24220;48.168;14.024;2023-03-08T03:45:18;10.00;52.40
38436;DHT22;24220;48.168;14.024;2023-03-08T03:47:45;10.10;52.40
38436;DHT22;24220;48.168;14.024;2023-03-08T03:50:14;10.10;52.40
38436;DHT22;24220;48.168;14.024;2023-03-08T03:52:41;10.10;52.30
38436;DHT22;24220;48.168;14.024;2023-03-08T03:55:08;10.10;52.20
38436;DHT22;24220;48.168;14.024;2023-03-08T03:57:36;10.10;52.10
38436;DHT22;24220;48.168;14.024;2023-03-08T04:00:04;10.20;52.20
38436;DHT22;24220;48.168;14.024;2023-03-08T04:02:32;10.20;52.10
38436;DHT22;24220;48.168;14.024;2023-03-08T04:04:59;10.20;52.10
38436;DHT22;24220;48.168;14.024;2023-03-08T04:07:27;10.20;52.00
38436;DHT22;24220;48.168;14.024;2023-03-08T04:09:56;10.20;52.00
38436;DHT22;24220;48.168;14.024;2023-03-08T04:12:24;10.20;52.00
38436;DHT22;24220;48.168;14.024;2023-03-08T04:14:52;10.20;51.90
38436;DHT22;24220;48.168;14.024;2023-03-08T04:17:20;10.20;51.90
38436;DHT22;24220;48.168;14.024;2023-03-08T04:19:50;10.20;51.90
38436;DHT22;24220;48.168;14.024;2023-03-08T04:22:17;10.20;51.80
38436;DHT22;24220;48.168;14.024;2023-03-08T04:24:45;10.20;51.70
38436;DHT22;24220;48.168;14.024;2023-03-08T04:27:14;10.10;51.60
38436;DHT22;24220;48.168;14.024;2023-03-08T04:29:42;10.10;51.70
38436;DHT22;24220;48.168;14.024;2023-03-08T04:32:11;10.20;51.70
38436;DHT22;24220;48.168;14.024;2023-03-08T04:34:41;10.10;51.70
38436;DHT22;24220;48.168;14.024;2023-03-08T04:37:13;10.10;51.70
38436;DHT22;24220;48.168;14.024;2023-03-08T04:39:41;10.10;52.00
38436;DHT22;24220;48.168;14.024;2023-03-08T04:42:08;10.10;51.70
38436;DHT22;24220;48.168;14.024;2023-03-08T04:44:35;10.10;51.60
38436;DHT22;24220;48.168;14.024;2023-03-08T04:47:05;10.10;51.60
38436;DHT22;24220;48.168;14.024;2023-03-08T04:49:32;10.10;51.50
38436;DHT22;24220;48.168;14.024;2023-03-08T04:52:00;10.10;51.50
38436;DHT22;24220;48.168;14.024;2023-03-08T04:54:27;10.00;51.50
38436;DHT22;24220;48.168;14.024;2023-03-08T04:56:54;10.00;51.60
38436;DHT22;24220;48.168;14.024;2023-03-08T04:59:24;10.00;51.70
38436;DHT22;24220;48.168;14.024;2023-03-08T05:01:51;10.00;51.70
38436;DHT22;24220;48.168;14.024;2023-03-08T05:04:19;9.90;51.60
38436;DHT22;24220;48.168;14.024;2023-03-08T05:06:46;9.90;51.70
38436;DHT22;24220;48.168;14.024;2023-03-08T05:09:13;9.90;51.70
38436;DHT22;24220;48.168;14.024;2023-03-08T05:11:41;9.80;51.70
38436;DHT22;24220;48.168;14.024;2023-03-08T05:14:08;9.80;51.80
38436;DHT22;24220;48.168;14.024;2023-03-08T05:16:36;9.80;51.90
38436;DHT22;24220;48.168;14.024;2023-03-08T05:19:03;9.70;51.80
38436;DHT22;24220;48.168;14.024;2023-03-08T05:21:30;9.70;51.70
38436;DHT22;24220;48.168;14.024;2023-03-08T05:23:58;9.70;51.80
38436;DHT22;24220;48.168;14.024;2023-03-08T05:26:26;9.60;51.90
38436;DHT22;24220;48.168;14.024;2023-03-08T05:28:54;9.60;51.80
38436;DHT22;24220;48.168;14.024;2023-03-08T05:31:22;9.60;51.90
38436;DHT22;24220;48.168;14.024;2023-03-08T05:33:50;9.60;51.90
38436;DHT22;24220;48.168;14.024;2023-03-08T05:36:18;9.60;52.00
38436;DHT22;24220;48.168;14.024;2023-03-08T05:38:45;9.50;51.90
38436;DHT22;24220;48.168;14.024;2023-03-08T05:41:15;9.50;51.90
38436;DHT22;24220;48.168;14.024;2023-03-08T05:43:43;9.50;52.00
38436;DHT22;24220;48.168;14.024;2023-03-08T05:46:18;9.50;52.00
38436;DHT22;24220;48.168;14.024;2023-03-08T05:48:45;9.50;52.00
38436;DHT22;24220;48.168;14.024;2023-03-08T05:51:16;9.40;52.00
38436;DHT22;24220;48.168;14.024;2023-03-08T05:53:46;9.40;52.00
38436;DHT22;24220;48.168;14.024;2023-03-08T05:56:16;9.40;52.00
38436;DHT22;24220;48.168;14.024;2023-03-08T05:58:44;9.40;52.00
38436;DHT22;24220;48.168;14.024;2023-03-08T06:01:18;9.30;52.00
38436;DHT22;24220;48.168;14.024;2023-03-08T06:03:48;9.30;52.00
38436;DHT22;24220;48.168;14.024;2023-03-08T06:06:16;9.30;52.00
38436;DHT22;24220;48.168;14.024;2023-03-08T06:08:43;9.30;52.00
38436;DHT22;24220;48.168;14.024;2023-03-08T06:11:14;9.20;52.30
38436;DHT22;24220;48.168;14.024;2023-03-08T06:13:42;9.20;52.30
38436;DHT22;24220;48.168;14.024;2023-03-08T06:16:10;9.20;52.30
38436;DHT22;24220;48.168;14.024;2023-03-08T06:18:39;9.20;52.50
38436;DHT22;24220;48.168;14.024;2023-03-08T06:21:12;9.20;52.70
38436;DHT22;24220;48.168;14.024;2023-03-08T06:23:40;9.20;52.70
38436;DHT22;24220;48.168;14.024;2023-03-08T06:26:09;9.20;52.80
38436;DHT22;24220;48.168;14.024;2023-03-08T06:28:37;9.20;53.00
38436;DHT22;24220;48.168;14.024;2023-03-08T06:31:07;9.20;53.00
38436;DHT22;24220;48.168;14.024;2023-03-08T06:33:35;9.20;53.20
38436;DHT22;24220;48.168;14.024;2023-03-08T06:36:05;9.20;53.40
38436;DHT22;24220;48.168;14.024;2023-03-08T06:38:34;9.20;53.60
38436;DHT22;24220;48.168;14.024;2023-03-08T06:41:05;9.20;53.60
38436;DHT22;24220;48.168;14.024;2023-03-08T06:43:33;9.30;53.70
38436;DHT22;24220;48.168;14.024;2023-03-08T06:46:08;9.30;53.70
38436;DHT22;24220;48.168;14.024;2023-03-08T06:48:36;9.30;54.00
38436;DHT22;24220;48.168;14.024;2023-03-08T06:51:06;9.30;53.90
38436;DHT22;24220;48.168;14.024;2023-03-08T06:53:34;9.40;53.80
38436;DHT22;24220;48.168;14.024;2023-03-08T06:56:08;9.40;53.70
38436;DHT22;24220;48.168;14.024;2023-03-08T06:58:35;9.40;53.40
38436;DHT22;24220;48.168;14.024;2023-03-08T07:01:03;9.50;53.40
38436;DHT22;24220;48.168;14.024;2023-03-08T07:03:32;9.60;53.50
38436;DHT22;24220;48.168;14.024;2023-03-08T07:06:02;9.60;53.40
38436;DHT22;24220;48.168;14.024;2023-03-08T07:08:30;9.70;53.10
38436;DHT22;24220;48.168;14.024;2023-03-08T07:10:58;9.80;52.90
38436;DHT22;24220;48.168;14.024;2023-03-08T07:13:26;9.90;52.80
38436;DHT22;24220;48.168;14.024;2023-03-08T07:15:55;10.00;52.50
38436;DHT22;24220;48.168;14.024;2023-03-08T07:18:23;10.10;52.50
38436;DHT22;24220;48.168;14.024;2023-03-08T07:20:55;10.10;52.60
38436;DHT22;24220;48.168;14.024;2023-03-08T07:23:23;10.20;51.80
38436;DHT22;24220;48.168;14.024;2023-03-08T07:25:50;10.30;52.10
38436;DHT22;24220;48.168;14.024;2023-03-08T07:28:18;10.40;52.10
38436;DHT22;24220;48.168;14.024;2023-03-08T07:30:50;10.40;51.80
38436;DHT22;24220;48.168;14.024;2023-03-08T07:33:19;10.50;52.20
38436;DHT22;24220;48.168;14.024;2023-03-08T07:35:47;10.60;51.90
38436;DHT22;24220;48.168;14.024;2023-03-08T07:38:15;10.70;51.90
38436;DHT22;24220;48.168;14.024;2023-03-08T07:40:43;10.80;51.90
38436;DHT22;24220;48.168;14.024;2023-03-08T07:43:11;10.90;51.90
38436;DHT22;24220;48.168;14.024;2023-03-08T07:45:38;11.00;51.80
38436;DHT22;24220;48.168;14.024;2023-03-08T07:48:06;11.10;51.60
38436;DHT22;24220;48.168;14.024;2023-03-08T07:50:33;11.20;51.40
38436;DHT22;24220;48.168;14.024;2023-03-08T07:53:01;11.30;51.50
38436;DHT22;24220;48.168;14.024;2023-03-08T07:55:30;11.40;51.00
38436;DHT22;24220;48.168;14.024;2023-03-08T07:57:58;11.40;50.70
38436;DHT22;24220;48.168;14.024;2023-03-08T08:00:25;11.50;50.30
38436;DHT22;24220;48.168;14.024;2023-03-08T08:02:53;11.60;50.10
38436;DHT22;24220;48.168;14.024;2023-03-08T08:05:20;11.60;50.30
38436;DHT22;24220;48.168;14.024;2023-03-08T08:07:48;11.70;50.60
38436;DHT22;24220;48.168;14.024;2023-03-08T08:10:16;11.80;50.80
38436;DHT22;24220;48.168;14.024;2023-03-08T08:12:45;11.80;50.70
38436;DHT22;24220;48.168;14.024;2023-03-08T08:15:13;11.90;50.50
38436;DHT22;24220;48.168;14.024;2023-03-08T08:17:45;11.90;50.50
38436;DHT22;24220;48.168;14.024;2023-03-08T08:20:12;12.00;50.60
38436;DHT22;24220;48.168;14.024;2023-03-08T08:22:42;12.00;50.30
38436;DHT22;24220;48.168;14.024;2023-03-08T08:25:10;12.00;50.00
38436;DHT22;24220;48.168;14.024;2023-03-08T08:27:42;12.10;50.10
38436;DHT22;24220;48.168;14.024;2023-03-08T08:30:12;12.10;50.10
38436;DHT22;24220;48.168;14.024;2023-03-08T08:32:39;12.10;50.50
38436;DHT22;24220;48.168;14.024;2023-03-08T08:35:07;12.10;50.30
38436;DHT22;24220;48.168;14.024;2023-03-08T08:37:37;12.20;50.30
38436;DHT22;24220;48.168;14.024;2023-03-08T08:40:05;12.20;50.00
38436;DHT22;24220;48.168;14.024;2023-03-08T08:42:34;12.20;50.20
38436;DHT22;24220;48.168;14.024;2023-03-08T08:45:01;12.20;49.60
38436;DHT22;24220;48.168;14.024;2023-03-08T08:47:29;12.30;49.80
38436;DHT22;24220;48.168;14.024;2023-03-08T08:49:56;12.30;49.20
38436;DHT22;24220;48.168;14.024;2023-03-08T08:52:23;12.30;49.40
38436;DHT22;24220;48.168;14.024;2023-03-08T08:54:56;12.30;49.20
38436;DHT22;24220;48.168;14.024;2023-03-08T08:57:23;12.30;49.20
38436;DHT22;24220;48.168;14.024;2023-03-08T08:59:51;12.30;49.10
38436;DHT22;24220;48.168;14.024;2023-03-08T09:02:23;12.30;49.40
38436;DHT22;24220;48.168;14.024;2023-03-08T09:04:52;12.30;48.60
38436;DHT22;24220;48.168;14.024;2023-03-08T09:07:19;12.30;49.20
38436;DHT22;24220;48.168;14.024;2023-03-08T09:09:49;12.30;49.10
38436;DHT22;24220;48.168;14.024;2023-03-08T09:12:16;12.30;48.90
38436;DHT22;24220;48.168;14.024;2023-03-08T09:14:46;12.30;49.30
38436;DHT22;24220;48.168;14.024;2023-03-08T09:17:13;12.30;49.20
38436;DHT22;24220;48.168;14.024;2023-03-08T09:19:43;12.30;49.40
38436;DHT22;24220;48.168;14.024;2023-03-08T09:22:10;12.30;49.60
38436;DHT22;24220;48.168;14.024;2023-03-08T09:24:37;12.30;49.20
38436;DHT22;24220;48.168;14.024;2023-03-08T09:27:05;12.30;48.70
38436;DHT22;24220;48.168;14.024;2023-03-08T09:29:35;12.30;48.50
38436;DHT22;24220;48.168;14.024;2023-03-08T09:32:04;12.30;48.50
38436;DHT22;24220;48.168;14.024;2023-03-08T09:34:34;12.30;48.50
38436;DHT22;24220;48.168;14.024;2023-03-08T09:37:02;12.30;48.60
38436;DHT22;24220;48.168;14.024;2023-03-08T09:39:29;12.30;48.20
38436;DHT22;24220;48.168;14.024;2023-03-08T09:41:59;12.30;48.40
38436;DHT22;24220;48.168;14.024;2023-03-08T09:49:42;12.40;48.10
38436;DHT22;24220;48.168;14.024;2023-03-08T09:54:49;12.60;47.80
38436;DHT22;24220;48.168;14.024;2023-03-08T09:57:24;12.60;47.50
38436;DHT22;24220;48.168;14.024;2023-03-08T09:59:57;12.70;48.00
38436;DHT22;24220;48.168;14.024;2023-03-08T10:08:04;12.90;47.30
38436;DHT22;24220;48.168;14.024;2023-03-08T10:10:40;13.00;47.60
38436;DHT22;24220;48.168;14.024;2023-03-08T10:13:34;13.10;48.00
38436;DHT22;24220;48.168;14.024;2023-03-08T10:16:26;13.20;47.30
38436;DHT22;24220;48.168;14.024;2023-03-08T10:19:45;13.30;46.90
38436;DHT22;24220;48.168;14.024;2023-03-08T10:21:50;13.30;46.10
38436;DHT22;24220;48.168;14.024;2023-03-08T10:24:25;13.40;46.50
38436;DHT22;24220;48.168;14.024;2023-03-08T10:27:04;13.40;46.50
38436;DHT22;24220;48.168;14.024;2023-03-08T10:29:32;13.50;46.40
38436;DHT22;24220;48.168;14.024;2023-03-08T10:31:59;13.50;46.10
38436;DHT22;24220;48.168;14.024;2023-03-08T10:34:33;13.50;46.00
38436;DHT22;24220;48.168;14.024;2023-03-08T10:37:03;13.60;46.20
38436;DHT22;24220;48.168;14.024;2023-03-08T10:39:34;13.60;46.00
38436;DHT22;24220;48.168;14.024;2023-03-08T10:42:14;13.60;46.40
38436;DHT22;24220;48.168;14.024;2023-03-08T10:47:24;13.70;46.30
38436;DHT22;24220;48.168;14.024;2023-03-08T10:52:34;13.90;46.10
38436;DHT22;24220;48.168;14.024;2023-03-08T10:57:35;14.00;46.50
38436;DHT22;24220;48.168;14.024;2023-03-08T11:00:30;14.10;47.20
38436;DHT22;24220;48.168;14.024;2023-03-08T11:03:16;14.10;46.80
38436;DHT22;24220;48.168;14.024;2023-03-08T11:08:32;14.30;45.60
38436;DHT22;24220;48.168;14.024;2023-03-08T11:11:01;14.40;46.30
38436;DHT22;24220;48.168;14.024;2023-03-08T11:13:31;14.40;45.90
38436;DHT22;24220;48.168;14.024;2023-03-08T11:27:37;14.80;45.40
38436;DHT22;24220;48.168;14.024;2023-03-08T11:35:43;14.80;45.80
38436;DHT22;24220;48.168;14.024;2023-03-08T11:38:28;14.80;44.70
38436;DHT22;24220;48.168;14.024;2023-03-08T11:57:13;14.60;45.10
38436;DHT22;24220;48.168;14.024;2023-03-08T11:59:49;14.60;46.00
38436;DHT22;24220;48.168;14.024;2023-03-08T12:02:22;14.50;45.40
38436;DHT22;24220;48.168;14.024;2023-03-08T12:07:56;14.50;45.30
38436;DHT22;24220;48.168;14.024;2023-03-08T12:10:41;14.50;45.50
38436;DHT22;24220;48.168;14.024;2023-03-08T12:18:47;14.50;45.30
38436;DHT22;24220;48.168;14.024;2023-03-08T12:26:54;14.40;46.10
38436;DHT22;24220;48.168;14.024;2023-03-08T12:29:45;14.40;45.40
38436;DHT22;24220;48.168;14.024;2023-03-08T12:32:13;14.40;46.10
38436;DHT22;24220;48.168;14.024;2023-03-08T12:34:46;14.40;45.10
38436;DHT22;24220;48.168;14.024;2023-03-08T12:37:23;14.40;45.30
38436;DHT22;24220;48.168;14.024;2023-03-08T12:39:57;14.40;45.50
38436;DHT22;24220;48.168;14.024;2023-03-08T12:42:34;14.30;45.30
38436;DHT22;24220;48.168;14.024;2023-03-08T12:50:44;14.30;45.30
38436;DHT22;24220;48.168;14.024;2023-03-08T12:59:45;14.20;46.40
38436;DHT22;24220;48.168;14.024;2023-03-08T13:04:37;14.10;45.80
38436;DHT22;24220;48.168;14.024;2023-03-08T13:07:19;14.10;45.90
38436;DHT22;24220;48.168;14.024;2023-03-08T13:10:00;14.10;45.30
38436;DHT22;24220;48.168;14.024;2023-03-08T13:12:49;14.10;45.50
38436;DHT22;24220;48.168;14.024;2023-03-08T13:15:22;14.10;45.60
38436;DHT22;24220;48.168;14.024;2023-03-08T13:28:41;14.00;46.40
38436;DHT22;24220;48.168;14.024;2023-03-08T13:31:15;14.00;45.20
38436;DHT22;24220;48.168;14.024;2023-03-08T13:38:58;14.00;45.90
38436;DHT22;24220;48.168;14.024;2023-03-08T13:41:41;14.00;45.60
38436;DHT22;24220;48.168;14.024;2023-03-08T13:44:24;14.00;45.60
38436;DHT22;24220;48.168;14.024;2023-03-08T13:46:57;14.00;45.60
38436;DHT22;24220;48.168;14.024;2023-03-08T13:49:34;14.10;45.50
38436;DHT22;24220;48.168;14.024;2023-03-08T13:52:04;14.00;45.40
38436;DHT22;24220;48.168;14.024;2023-03-08T13:54:43;14.00;45.40
38436;DHT22;24220;48.168;14.024;2023-03-08T13:59:52;14.00;45.40
38436;DHT22;24220;48.168;14.024;2023-03-08T14:02:24;14.00;45.70
38436;DHT22;24220;48.168;14.024;2023-03-08T14:04:55;14.00;45.70
38436;DHT22;24220;48.168;14.024;2023-03-08T14:07:30;14.00;45.70
38436;DHT22;24220;48.168;14.024;2023-03-08T14:09:58;13.90;46.10
38436;DHT22;24220;48.168;14.024;2023-03-08T14:12:30;13.90;46.20
38436;DHT22;24220;48.168;14.024;2023-03-08T14:15:02;14.00;47.00
38436;DHT22;24220;48.168;14.024;2023-03-08T14:17:33;14.00;46.50
38436;DHT22;24220;48.168;14.024;2023-03-08T14:20:19;14.00;46.70
38436;DHT22;24220;48.168;14.024;2023-03-08T14:22:48;14.00;46.90
38436;DHT22;24220;48.168;14.024;2023-03-08T14:27:48;14.00;46.60
38436;DHT22;24220;48.168;14.024;2023-03-08T14:30:27;14.00;46.90
38436;DHT22;24220;48.168;14.024;2023-03-08T14:35:31;14.00;46.80
38436;DHT22;24220;48.168;14.024;2023-03-08T14:37:59;14.00;46.90
38436;DHT22;24220;48.168;14.024;2023-03-08T14:40:33;14.10;47.10
38436;DHT22;24220;48.168;14.024;2023-03-08T14:43:05;14.10;47.00
38436;DHT22;24220;48.168;14.024;2023-03-08T14:45:57;14.00;46.60
38436;DHT22;24220;48.168;14.024;2023-03-08T14:53:58;14.00;47.30
38436;DHT22;24220;48.168;14.024;2023-03-08T14:56:30;14.00;47.10
38436;DHT22;24220;48.168;14.024;2023-03-08T14:58:59;14.00;48.00
38436;DHT22;24220;48.168;14.024;2023-03-08T15:01:32;14.00;47.30
38436;DHT22;24220;48.168;14.024;2023-03-08T15:04:03;14.00;47.80
38436;DHT22;24220;48.168;14.024;2023-03-08T15:06:34;14.00;47.50
38436;DHT22;24220;48.168;14.024;2023-03-08T15:09:06;14.00;47.40
38436;DHT22;24220;48.168;14.024;2023-03-08T15:11:36;14.00;47.70
38436;DHT22;24220;48.168;14.024;2023-03-08T15:14:05;14.00;48.10
38436;DHT22;24220;48.168;14.024;2023-03-08T15:16:32;14.10;48.30
38436;DHT22;24220;48.168;14.024;2023-03-08T15:19:00;14.10;48.20
38436;DHT22;24220;48.168;14.024;2023-03-08T15:21:30;14.10;48.00
38436;DHT22;24220;48.168;14.024;2023-03-08T15:23:59;14.10;48.00
38436;DHT22;24220;48.168;14.024;2023-03-08T15:26:31;14.10;48.00
38436;DHT22;24220;48.168;14.024;2023-03-08T15:29:04;14.10;48.20
38436;DHT22;24220;48.168;14.024;2023-03-08T15:31:32;14.10;48.40
38436;DHT22;24220;48.168;14.024;2023-03-08T15:34:01;14.10;48.50
38436;DHT22;24220;48.168;14.024;2023-03-08T15:36:29;14.10;48.60
38436;DHT22;24220;48.168;14.024;2023-03-08T15:39:00;14.10;48.60
38436;DHT22;24220;48.168;14.024;2023-03-08T15:41:30;14.10;48.40
38436;DHT22;24220;48.168;14.024;2023-03-08T15:43:57;14.10;48.50
38436;DHT22;24220;48.168;14.024;2023-03-08T15:46:25;14.10;48.70
38436;DHT22;24220;48.168;14.024;2023-03-08T15:48:52;14.10;48.70
38436;DHT22;24220;48.168;14.024;2023-03-08T15:51:27;14.10;48.50
38436;DHT22;24220;48.168;14.024;2023-03-08T15:53:58;14.10;48.60
38436;DHT22;24220;48.168;14.024;2023-03-08T15:56:25;14.10;48.50
38436;DHT22;24220;48.168;14.024;2023-03-08T15:58:54;14.10;48.70
38436;DHT22;24220;48.168;14.024;2023-03-08T16:01:24;14.10;48.50
38436;DHT22;24220;48.168;14.024;2023-03-08T16:03:54;14.10;48.80
38436;DHT22;24220;48.168;14.024;2023-03-08T16:06:21;14.10;48.60
38436;DHT22;24220;48.168;14.024;2023-03-08T16:08:49;14.10;48.50
38436;DHT22;24220;48.168;14.024;2023-03-08T16:11:17;14.10;48.80
38436;DHT22;24220;48.168;14.024;2023-03-08T16:13:50;14.00;48.70
38436;DHT22;24220;48.168;14.024;2023-03-08T16:16:18;14.10;49.10
38436;DHT22;24220;48.168;14.024;2023-03-08T16:18:46;14.10;48.90
38436;DHT22;24220;48.168;14.024;2023-03-08T16:21:17;14.10;49.00
38436;DHT22;24220;48.168;14.024;2023-03-08T16:23:44;14.10;49.10
38436;DHT22;24220;48.168;14.024;2023-03-08T16:26:13;14.10;49.00
38436;DHT22;24220;48.168;14.024;2023-03-08T16:28:45;14.10;49.50
38436;DHT22;24220;48.168;14.024;2023-03-08T16:31:14;14.10;49.80
38436;DHT22;24220;48.168;14.024;2023-03-08T16:33:41;14.10;49.50
38436;DHT22;24220;48.168;14.024;2023-03-08T16:36:12;14.10;49.40
38436;DHT22;24220;48.168;14.024;2023-03-08T16:38:40;14.10;49.80
38436;DHT22;24220;48.168;14.024;2023-03-08T16:41:07;14.10;49.60
38436;DHT22;24220;48.168;14.024;2023-03-08T16:43:41;14.10;49.80
38436;DHT22;24220;48.168;14.024;2023-03-08T16:46:16;14.10;49.60
38436;DHT22;24220;48.168;14.024;2023-03-08T16:48:44;14.10;49.40
38436;DHT22;24220;48.168;14.024;2023-03-08T16:51:17;14.10;49.50
38436;DHT22;24220;48.168;14.024;2023-03-08T16:53:45;14.10;49.50
38436;DHT22;24220;48.168;14.024;2023-03-08T16:56:23;14.10;49.70
38436;DHT22;24220;48.168;14.024;2023-03-08T16:58:54;14.10;49.50
38436;DHT22;24220;48.168;14.024;2023-03-08T17:01:22;14.00;49.60
38436;DHT22;24220;48.168;14.024;2023-03-08T17:03:53;14.00;49.70
38436;DHT22;24220;48.168;14.024;2023-03-08T17:06:27;14.00;50.20
38436;DHT22;24220;48.168;14.024;2023-03-08T17:08:59;14.00;50.30
38436;DHT22;24220;48.168;14.024;2023-03-08T17:11:29;14.00;50.30
38436;DHT22;24220;48.168;14.024;2023-03-08T17:14:02;14.00;50.10
38436;DHT22;24220;48.168;14.024;2023-03-08T17:16:32;14.00;50.40
38436;DHT22;24220;48.168;14.024;2023-03-08T17:19:03;14.00;50.80
38436;DHT22;24220;48.168;14.024;2023-03-08T17:21:34;14.00;51.20
38436;DHT22;24220;48.168;14.024;2023-03-08T17:24:06;14.00;51.40
38436;DHT22;24220;48.168;14.024;2023-03-08T17:26:40;14.00;50.80
38436;DHT22;24220;48.168;14.024;2023-03-08T17:29:08;14.00;51.40
38436;DHT22;24220;48.168;14.024;2023-03-08T17:31:40;14.00;51.50
38436;DHT22;24220;48.168;14.024;2023-03-08T17:34:10;14.00;51.20
38436;DHT22;24220;48.168;14.024;2023-03-08T17:36:37;14.00;51.30